createdAt,value
2022-08-27T00:01:08.888Z,101960.03
2022-08-27T00:03:41.722Z,101964.41
2022-08-27T00:06:11.843Z,101964.38
2022-08-27T00:08:41.657Z,101968.75
2022-08-27T00:11:13.927Z,101966.06
2022-08-27T00:13:47.735Z,101959.84
2022-08-27T00:16:19.346Z,101962.44
2022-08-27T00:18:51.961Z,101958.88
2022-08-27T00:21:22.727Z,101949.19
2022-08-27T00:23:52.397Z,101945.59
2022-08-27T00:26:22.222Z,101947.31
2022-08-27T00:28:55.771Z,101949.06
2022-08-27T00:31:27.942Z,101943.75
2022-08-27T00:33:58.896Z,101944.63
2022-08-27T00:36:29.968Z,101944.59
2022-08-27T00:39:00.368Z,101947.19
2022-08-27T00:41:36.072Z,101947.16
2022-08-27T00:44:09.641Z,101948.91
2022-08-27T00:46:43.134Z,101951.47
2022-08-27T00:49:19.037Z,101954.94
2022-08-27T00:51:57.493Z,101955.84
2022-08-27T00:54:29.828Z,101950.53
2022-08-27T00:57:05.442Z,101951.38
2022-08-27T00:59:39.687Z,101946.94
2022-08-27T01:02:24.729Z,101947.81
2022-08-27T01:04:57.969Z,101948.66
2022-08-27T01:07:29.684Z,101959.13
2022-08-27T01:10:06.245Z,101953.84
2022-08-27T01:12:40.433Z,101950.28
2022-08-27T01:15:21.895Z,101957.31
2022-08-27T01:17:54.529Z,101955.50
2022-08-27T01:20:28.646Z,101952.84
2022-08-27T01:23:07.713Z,101950.22
2022-08-27T01:25:44.715Z,101950.16
2022-08-27T01:28:37.493Z,101945.75
2022-08-27T01:31:10.856Z,101951.03
2022-08-27T01:33:41.568Z,101946.59
2022-08-27T01:36:11.939Z,101944.81
2022-08-27T01:38:41.808Z,101944.75
2022-08-27T01:41:15.213Z,101950.03
2022-08-27T01:43:45.625Z,101949.13
2022-08-27T01:46:17.518Z,101945.66
2022-08-27T01:48:48.109Z,101950.91
2022-08-27T01:51:18.862Z,101944.72
2022-08-27T01:53:48.879Z,101950.00
2022-08-27T01:56:21.893Z,101953.47
2022-08-27T01:58:52.467Z,101956.94
2022-08-27T02:01:22.454Z,101948.13
2022-08-27T02:03:52.720Z,101948.06
2022-08-27T02:06:22.683Z,101944.50
2022-08-27T02:08:52.568Z,101944.56
2022-08-27T02:11:25.521Z,101937.53
2022-08-27T02:13:55.422Z,101937.47
2022-08-27T02:16:25.569Z,101940.97
2022-08-27T02:18:56.351Z,101941.78
2022-08-27T02:21:26.969Z,101936.47
2022-08-27T02:23:56.931Z,101938.19
2022-08-27T02:26:30.796Z,101938.19
2022-08-27T02:29:00.281Z,101935.50
2022-08-27T02:31:31.726Z,101938.09
2022-08-27T02:34:01.953Z,101933.66
2022-08-27T02:36:34.842Z,101930.19
2022-08-27T02:39:05.132Z,101930.16
2022-08-27T02:41:41.050Z,101925.69
2022-08-27T02:44:11.693Z,101922.25
2022-08-27T02:46:44.070Z,101923.03
2022-08-27T02:49:15.628Z,101923.91
2022-08-27T02:51:45.366Z,101924.69
2022-08-27T02:54:15.358Z,101918.50
2022-08-27T02:56:48.081Z,101914.97
2022-08-27T02:59:18.047Z,101912.31
2022-08-27T03:01:48.159Z,101909.66
2022-08-27T03:04:18.874Z,101907.00
2022-08-27T03:06:49.640Z,101914.00
2022-08-27T03:09:19.917Z,101906.97
2022-08-27T03:11:53.643Z,101906.03
2022-08-27T03:14:23.161Z,101914.78
2022-08-27T03:16:53.513Z,101906.88
2022-08-27T03:19:24.228Z,101913.00
2022-08-27T03:21:55.109Z,101912.97
2022-08-27T03:24:25.066Z,101911.16
2022-08-27T03:26:57.597Z,101914.66
2022-08-27T03:29:28.514Z,101916.38
2022-08-27T03:31:58.846Z,101917.22
2022-08-27T03:34:28.681Z,101912.75
2022-08-27T03:37:00.429Z,101906.63
2022-08-27T03:39:34.930Z,101904.84
2022-08-27T03:42:10.582Z,101910.97
2022-08-27T03:44:40.265Z,101909.22
2022-08-27T03:47:10.753Z,101913.59
2022-08-27T03:49:40.843Z,101907.38
2022-08-27T03:52:14.580Z,101907.34
2022-08-27T03:54:44.084Z,101915.22
2022-08-27T03:57:16.533Z,101909.13
2022-08-27T03:59:46.876Z,101913.53
2022-08-27T04:02:16.671Z,101912.59
2022-08-27T04:04:46.578Z,101904.63
2022-08-27T04:07:16.697Z,101910.78
2022-08-27T04:09:46.601Z,101911.66
2022-08-27T04:12:20.045Z,101904.56
2022-08-27T04:14:50.423Z,101905.47
2022-08-27T04:17:20.375Z,101899.31
2022-08-27T04:19:50.656Z,101906.34
2022-08-27T04:22:21.098Z,101909.06
2022-08-27T04:24:51.142Z,101902.94
2022-08-27T04:27:27.064Z,101912.56
2022-08-27T04:30:07.820Z,101912.56
2022-08-27T04:32:40.643Z,101907.25
2022-08-27T04:35:11.885Z,101915.06
2022-08-27T04:37:42.086Z,101910.63
2022-08-27T04:40:13.200Z,101908.84
2022-08-27T04:42:45.748Z,101915.00
2022-08-27T04:45:15.557Z,101912.41
2022-08-27T04:47:45.476Z,101919.53
2022-08-27T04:50:15.578Z,101922.19
2022-08-27T04:52:46.189Z,101932.72
2022-08-27T04:55:17.863Z,101927.50
2022-08-27T04:57:50.320Z,101929.25
2022-08-27T05:00:20.553Z,101924.00
2022-08-27T05:02:50.253Z,101931.84
2022-08-27T05:05:20.485Z,101928.28
2022-08-27T05:07:50.542Z,101932.72
2022-08-27T05:10:20.543Z,101941.50
2022-08-27T05:12:58.044Z,101938.00
2022-08-27T05:15:30.701Z,101933.72
2022-08-27T05:18:00.913Z,101936.50
2022-08-27T05:20:36.992Z,101942.84
2022-08-27T05:23:09.708Z,101943.91
2022-08-27T05:25:41.710Z,101945.88
2022-08-27T05:28:15.082Z,101936.41
2022-08-27T05:30:52.397Z,101934.78
2022-08-27T05:33:28.372Z,101940.25
2022-08-27T05:36:04.225Z,101938.59
2022-08-27T05:38:36.221Z,101940.53
2022-08-27T05:41:10.906Z,101947.81
2022-08-27T05:43:49.647Z,101941.78
2022-08-27T05:46:25.350Z,101941.91
2022-08-27T05:49:00.233Z,101942.06
2022-08-27T05:51:35.066Z,101935.97
2022-08-27T05:54:16.532Z,101942.25
2022-08-27T05:56:46.439Z,101932.66
2022-08-27T05:59:31.144Z,101935.47
2022-08-27T06:02:06.305Z,101930.22
2022-08-27T06:04:39.365Z,101932.16
2022-08-27T06:07:11.620Z,101933.25
2022-08-27T06:09:41.657Z,101930.72
2022-08-27T06:12:12.638Z,101929.91
2022-08-27T06:14:44.958Z,101931.81
2022-08-27T06:17:17.690Z,101932.78
2022-08-27T06:19:47.506Z,101929.38
2022-08-27T06:22:17.554Z,101931.28
2022-08-27T06:24:47.489Z,101932.31
2022-08-27T06:27:20.682Z,101923.63
2022-08-27T06:29:53.946Z,101936.16
2022-08-27T06:32:25.530Z,101934.50
2022-08-27T06:34:55.329Z,101931.13
2022-08-27T06:37:25.038Z,101935.66
2022-08-27T06:39:55.245Z,101918.09
2022-08-27T06:42:25.079Z,101930.59
2022-08-27T06:44:57.563Z,101923.59
2022-08-27T06:47:28.148Z,101927.22
2022-08-27T06:50:00.553Z,101922.00
2022-08-27T06:52:30.910Z,101911.50
2022-08-27T06:55:00.755Z,101919.53
2022-08-27T06:57:39.557Z,101916.94
2022-08-27T07:00:13.408Z,101923.19
2022-08-27T07:02:44.220Z,101929.41
2022-08-27T07:05:14.910Z,101926.78
2022-08-27T07:07:48.672Z,101931.25
2022-08-27T07:10:19.036Z,101942.78
2022-08-27T07:12:49.087Z,101933.06
2022-08-27T07:15:22.812Z,101934.00
2022-08-27T07:17:56.398Z,101938.44
2022-08-27T07:20:28.454Z,101938.47
2022-08-27T07:22:59.985Z,101934.94
2022-08-27T07:25:34.701Z,101932.31
2022-08-27T07:28:06.938Z,101937.63
2022-08-27T07:30:40.213Z,101933.22
2022-08-27T07:33:11.262Z,101944.72
2022-08-27T07:35:41.270Z,101950.06
2022-08-27T07:38:13.318Z,101948.31
2022-08-27T07:40:42.917Z,101948.31
2022-08-27T07:43:25.331Z,101945.66
2022-08-27T07:46:01.034Z,101949.22
2022-08-27T07:48:36.673Z,101955.41
2022-08-27T07:51:17.397Z,101947.44
2022-08-27T07:53:47.583Z,101948.31
2022-08-27T07:56:17.689Z,101950.06
2022-08-27T07:58:49.200Z,101950.97
2022-08-27T08:01:24.122Z,101960.63
2022-08-27T08:03:54.108Z,101961.50
2022-08-27T08:09:08.499Z,101970.22
2022-08-27T08:11:43.246Z,101974.59
2022-08-27T08:14:12.974Z,101973.66
2022-08-27T08:16:48.961Z,101979.84
2022-08-27T08:19:19.172Z,101966.44
2022-08-27T08:21:57.239Z,101972.59
2022-08-27T08:24:40.781Z,101972.63
2022-08-27T08:27:11.712Z,101974.31
2022-08-27T08:29:41.623Z,101974.19
2022-08-27T08:32:14.587Z,101969.56
2022-08-27T08:34:44.622Z,101974.78
2022-08-27T08:37:15.792Z,101976.53
2022-08-27T08:39:46.033Z,101967.56
2022-08-27T08:42:39.743Z,101967.63
2022-08-27T08:45:12.451Z,101970.97
2022-08-27T08:47:49.365Z,101972.72
2022-08-27T08:50:25.210Z,101973.50
2022-08-27T08:53:12.623Z,101978.03
2022-08-27T08:55:55.313Z,101982.28
2022-08-27T08:59:37.889Z,101979.47
2022-08-27T09:02:56.332Z,101980.31
2022-08-27T09:08:41.908Z,101984.69
2022-08-27T09:11:24.652Z,101984.78
2022-08-27T09:13:58.842Z,101991.09
2022-08-27T09:16:28.882Z,101980.78
2022-08-27T09:19:05.934Z,101982.31
2022-08-27T09:22:01.022Z,101987.59
2022-08-27T09:24:55.628Z,101983.09
2022-08-27T09:27:29.771Z,101991.75
2022-08-27T09:30:25.539Z,101999.06
2022-08-27T09:33:19.577Z,101993.66
2022-08-27T09:35:51.534Z,101994.75
2022-08-27T09:38:48.913Z,101997.41
2022-08-27T09:41:31.270Z,102001.00
2022-08-27T09:44:05.983Z,101991.53
2022-08-27T09:46:38.213Z,101991.50
2022-08-27T09:49:18.963Z,101989.63
2022-08-27T09:51:52.015Z,101995.22
2022-08-27T09:54:40.663Z,101991.53
2022-08-27T09:57:12.376Z,101985.28
2022-08-27T09:59:47.418Z,101995.84
2022-08-27T10:02:24.215Z,101988.78
2022-08-27T10:04:55.743Z,101988.53
2022-08-27T10:07:53.235Z,101990.69
2022-08-27T10:10:29.748Z,101994.06
2022-08-27T10:13:10.240Z,101984.78
2022-08-27T10:15:49.511Z,101984.00
2022-08-27T10:18:35.399Z,101978.09
2022-08-27T10:21:15.697Z,101988.09
2022-08-27T10:23:54.237Z,101972.50
2022-08-27T10:26:37.785Z,101973.38
2022-08-27T10:29:12.389Z,101978.69
2022-08-27T10:31:50.895Z,101983.09
2022-08-27T10:34:37.600Z,101977.16
2022-08-27T10:37:19.726Z,101975.38
2022-08-27T10:40:17.734Z,101966.22
2022-08-27T10:46:50.098Z,101974.69
2022-08-27T10:49:37.045Z,101976.19
2022-08-27T10:52:21.083Z,101974.59
2022-08-27T10:55:10.743Z,101975.16
2022-08-27T10:58:06.795Z,101972.72
2022-08-27T11:01:10.617Z,101967.66
2022-08-27T11:04:19.540Z,101971.53
2022-08-27T11:07:15.887Z,101968.69
2022-08-27T11:09:56.174Z,101975.38
2022-08-27T11:12:36.285Z,101973.50
2022-08-27T11:15:18.489Z,101975.28
2022-08-27T11:17:53.936Z,101981.66
2022-08-27T11:20:29.363Z,101967.56
2022-08-27T11:23:07.896Z,101966.03
2022-08-27T11:25:53.407Z,101959.94
2022-08-27T11:28:30.389Z,101962.22
2022-08-27T11:31:09.429Z,101954.97
2022-08-27T11:33:46.675Z,101963.56
2022-08-27T11:36:54.810Z,101960.00
2022-08-27T11:40:09.878Z,101961.34
2022-08-27T11:42:42.486Z,101959.75
2022-08-27T11:45:20.676Z,101966.34
2022-08-27T11:48:00.691Z,101962.91
2022-08-27T11:50:36.446Z,101963.59
2022-08-27T11:53:13.938Z,101962.91
2022-08-27T11:55:46.220Z,101964.81
2022-08-27T11:58:31.414Z,101970.88
2022-08-27T12:01:07.924Z,101960.81
2022-08-27T12:03:41.105Z,101961.78
2022-08-27T12:06:45.080Z,101960.00
2022-08-27T12:09:27.616Z,101962.59
2022-08-27T12:12:10.750Z,101963.03
2022-08-27T12:14:48.962Z,101960.78
2022-08-27T12:17:34.935Z,101952.19
2022-08-27T12:20:17.233Z,101965.13
2022-08-27T12:23:12.959Z,101966.59
2022-08-27T12:25:43.057Z,101972.28
2022-08-27T12:28:27.837Z,101967.91
2022-08-27T12:31:23.897Z,101972.94
2022-08-27T12:34:35.971Z,101968.34
2022-08-27T12:38:19.133Z,101968.78
2022-08-27T12:40:57.825Z,101961.81
2022-08-27T12:43:36.742Z,101968.81
2022-08-27T12:46:14.761Z,101968.22
2022-08-27T12:48:47.129Z,101962.00
2022-08-27T12:51:22.726Z,101962.22
2022-08-27T12:53:59.043Z,101962.44
2022-08-27T12:57:08.171Z,101956.50
2022-08-27T12:59:57.090Z,101954.00
2022-08-27T13:02:41.965Z,101957.06
2022-08-27T13:05:14.708Z,101950.59
2022-08-27T13:07:46.971Z,101947.97
2022-08-27T13:10:19.549Z,101950.69
2022-08-27T13:13:16.013Z,101944.94
2022-08-27T13:15:51.917Z,101945.78
2022-08-27T13:19:08.940Z,101943.84
2022-08-27T13:21:41.668Z,101946.25
2022-08-27T13:24:13.964Z,101953.84
2022-08-27T13:26:54.444Z,101943.13
2022-08-27T13:29:35.135Z,101951.16
2022-08-27T13:32:11.346Z,101952.03
2022-08-27T13:34:43.115Z,101953.56
2022-08-27T13:37:40.928Z,101951.81
2022-08-27T13:40:13.635Z,101954.81
2022-08-27T13:42:45.810Z,101958.38
2022-08-27T13:45:41.243Z,101964.66
2022-08-27T13:48:15.390Z,101956.69
2022-08-27T13:51:06.730Z,101952.41
2022-08-27T13:54:07.118Z,101958.53
2022-08-27T13:56:42.138Z,101963.16
2022-08-27T13:59:19.202Z,101957.56
2022-08-27T14:02:00.204Z,101952.84
2022-08-27T14:04:40.194Z,101954.81
2022-08-27T14:07:12.992Z,101952.84
2022-08-27T14:09:54.173Z,101949.53
2022-08-27T14:12:36.412Z,101954.88
2022-08-27T14:15:22.935Z,101953.94
2022-08-27T14:17:57.897Z,101952.19
2022-08-27T14:20:34.839Z,101958.28
2022-08-27T14:23:06.819Z,101951.34
2022-08-27T14:25:39.471Z,101948.41
2022-08-27T14:28:09.344Z,101953.63
2022-08-27T14:30:41.407Z,101953.72
2022-08-27T14:33:11.758Z,101951.06
2022-08-27T14:35:45.343Z,101955.34
2022-08-27T14:38:21.363Z,101952.72
2022-08-27T14:43:25.557Z,101962.59
2022-08-27T14:45:57.357Z,101964.72
2022-08-27T14:48:34.992Z,101963.31
2022-08-27T14:51:17.192Z,101966.88
2022-08-27T14:53:46.910Z,101968.50
2022-08-27T14:56:16.589Z,101958.47
2022-08-27T14:58:46.851Z,101959.09
2022-08-27T15:01:17.601Z,101961.84
2022-08-27T15:03:49.993Z,101960.66
2022-08-27T15:06:28.539Z,101965.00
2022-08-27T15:09:05.452Z,101964.25
2022-08-27T15:11:50.748Z,101967.94
2022-08-27T15:14:34.458Z,101971.59
2022-08-27T15:17:25.406Z,101969.75
2022-08-27T15:20:00.398Z,101965.19
2022-08-27T15:22:43.973Z,101962.56
2022-08-27T15:25:16.598Z,101968.03
2022-08-27T15:27:46.618Z,101971.75
2022-08-27T15:30:18.514Z,101956.63
2022-08-27T15:32:50.934Z,101970.06
2022-08-27T15:35:30.233Z,101967.47
2022-08-27T15:38:06.094Z,101973.94
2022-08-27T15:40:41.096Z,101965.94
2022-08-27T15:43:29.053Z,101974.16
2022-08-27T15:46:05.741Z,101962.97
2022-08-27T15:48:39.429Z,101963.22
2022-08-27T15:51:13.701Z,101966.69
2022-08-27T15:53:52.087Z,101971.81
2022-08-27T15:56:23.940Z,101971.22
2022-08-27T15:58:55.877Z,101970.41
2022-08-27T16:01:35.905Z,101968.75
2022-08-27T16:04:10.966Z,101979.44
2022-08-27T16:06:41.141Z,101979.50
2022-08-27T16:09:15.866Z,101981.59
2022-08-27T16:11:46.181Z,101977.25
2022-08-27T16:14:17.115Z,101974.69
2022-08-27T16:16:59.028Z,101973.91
2022-08-27T16:19:30.554Z,101973.88
2022-08-27T16:22:01.946Z,101967.63
2022-08-27T16:24:37.525Z,101976.53
2022-08-27T16:27:08.882Z,101972.06
2022-08-27T16:29:42.023Z,101971.31
2022-08-27T16:32:17.341Z,101980.28
2022-08-27T16:34:55.539Z,101973.22
2022-08-27T16:37:27.394Z,101971.41
2022-08-27T16:40:00.190Z,101972.31
2022-08-27T16:42:31.223Z,101976.84
2022-08-27T16:45:05.065Z,101971.53
2022-08-27T16:47:56.882Z,101972.41
2022-08-27T16:50:38.487Z,101969.75
2022-08-27T16:53:10.915Z,101966.19
2022-08-27T16:55:45.410Z,101975.09
2022-08-27T16:58:20.997Z,101970.59
2022-08-27T17:00:55.008Z,101964.38
2022-08-27T17:03:28.415Z,101965.28
2022-08-27T17:05:57.923Z,101959.91
2022-08-27T17:08:30.502Z,101966.06
2022-08-27T17:11:05.870Z,101968.72
2022-08-27T17:13:36.480Z,101970.44
2022-08-27T17:16:10.571Z,101970.47
2022-08-27T17:18:40.522Z,101967.78
2022-08-27T17:21:10.746Z,101969.47
2022-08-27T17:23:42.480Z,101964.09
2022-08-27T17:26:17.352Z,101968.59
2022-08-27T17:28:47.588Z,101965.03
2022-08-27T17:31:27.754Z,101966.81
2022-08-27T17:34:00.181Z,101966.84
2022-08-27T17:36:36.073Z,101968.63
2022-08-27T17:39:09.421Z,101975.88
2022-08-27T17:41:44.250Z,101972.38
2022-08-27T17:44:19.731Z,101979.66
2022-08-27T17:46:49.866Z,101976.06
2022-08-27T17:49:21.256Z,101982.31
2022-08-27T17:51:53.459Z,101981.38
2022-08-27T17:54:38.040Z,101973.53
2022-08-27T17:57:19.237Z,101985.09
2022-08-27T17:59:49.617Z,101984.25
2022-08-27T18:02:23.121Z,101987.78
2022-08-27T18:04:53.113Z,101986.06
2022-08-27T18:07:23.312Z,101987.88
2022-08-27T18:09:53.485Z,101988.81
2022-08-27T18:12:28.202Z,101995.03
2022-08-27T18:15:07.684Z,101988.88
2022-08-27T18:17:43.330Z,101995.97
2022-08-27T18:20:16.706Z,101994.22
2022-08-27T18:22:48.721Z,102003.13
2022-08-27T18:25:19.909Z,101996.06
2022-08-27T18:27:54.825Z,102001.38
2022-08-27T18:30:28.212Z,102011.19
2022-08-27T18:32:57.747Z,102007.63
2022-08-27T18:35:29.189Z,102012.03
2022-08-27T18:38:05.203Z,102025.34
2022-08-27T18:40:40.122Z,102021.78
2022-08-27T18:43:13.203Z,102030.66
2022-08-27T18:45:43.272Z,102033.28
2022-08-27T18:48:17.013Z,102035.94
2022-08-27T18:50:50.593Z,102035.94
2022-08-27T18:53:22.231Z,102042.13
2022-08-27T18:55:53.648Z,102046.53
2022-08-27T18:58:27.270Z,102039.44
2022-08-27T19:01:01.198Z,102040.31
2022-08-27T19:03:36.082Z,102043.84
2022-08-27T19:06:09.994Z,102048.25
2022-08-27T19:08:43.177Z,102050.00
2022-08-27T19:11:13.683Z,102049.97
2022-08-27T19:13:50.402Z,102051.75
2022-08-27T19:16:27.475Z,102047.28
2022-08-27T19:18:57.693Z,102053.47
2022-08-27T19:21:29.414Z,102066.72
2022-08-27T19:24:00.786Z,102069.34
2022-08-27T19:26:34.676Z,102071.94
2022-08-27T19:29:12.836Z,102072.81
2022-08-27T19:31:43.354Z,102078.09
2022-08-27T19:34:13.736Z,102084.22
2022-08-27T19:36:46.273Z,102078.91
2022-08-27T19:39:16.588Z,102083.28
2022-08-27T19:41:46.394Z,102094.75
2022-08-27T19:44:19.027Z,102085.91
2022-08-27T19:46:50.254Z,102092.06
2022-08-27T19:49:20.096Z,102096.44
2022-08-27T19:51:50.011Z,102095.53
2022-08-27T19:54:19.960Z,102098.13
2022-08-27T19:56:49.539Z,102096.31
2022-08-27T19:59:22.008Z,102098.06
2022-08-27T20:01:52.975Z,102100.69
2022-08-27T20:04:23.400Z,102098.84
2022-08-27T20:06:53.611Z,102101.47
2022-08-27T20:09:25.694Z,102100.53
2022-08-27T20:11:55.579Z,102096.97
2022-08-27T20:14:28.586Z,102102.22
2022-08-27T20:17:00.537Z,102104.78
2022-08-27T20:19:35.769Z,102098.50
2022-08-27T20:22:09.662Z,102102.00
2022-08-27T20:24:39.854Z,102101.97
2022-08-27T20:27:10.690Z,102094.88
2022-08-27T20:29:43.037Z,102107.16
2022-08-27T20:32:13.298Z,102110.63
2022-08-27T20:34:43.401Z,102104.41
2022-08-27T20:37:13.502Z,102107.00
2022-08-27T20:39:43.703Z,102099.88
2022-08-27T20:42:13.888Z,102105.13
2022-08-27T20:44:46.942Z,102107.75
2022-08-27T20:47:17.555Z,102108.59
2022-08-27T20:49:47.605Z,102113.81
2022-08-27T20:52:19.479Z,102116.41
2022-08-27T20:54:49.966Z,102114.59
2022-08-27T20:57:20.004Z,102116.34
2022-08-27T21:00:07.605Z,102126.91
2022-08-27T21:02:40.701Z,102127.75
2022-08-27T21:05:13.376Z,102129.50
2022-08-27T21:07:44.750Z,102125.09
2022-08-27T21:10:14.900Z,102119.72
2022-08-27T21:12:44.754Z,102126.78
2022-08-27T21:15:17.791Z,102128.53
2022-08-27T21:17:47.826Z,102125.00
2022-08-27T21:20:18.209Z,102131.13
2022-08-27T21:22:48.471Z,102125.81
2022-08-27T21:25:18.299Z,102124.88
2022-08-27T21:27:48.375Z,102129.25
2022-08-27T21:30:21.962Z,102130.13
2022-08-27T21:32:51.835Z,102122.16
2022-08-27T21:35:21.783Z,102124.75
2022-08-27T21:37:51.829Z,102124.72
2022-08-27T21:40:21.882Z,102129.13
2022-08-27T21:42:51.978Z,102129.97
2022-08-27T21:45:25.346Z,102127.31
2022-08-27T21:47:55.382Z,102134.28
2022-08-27T21:50:26.496Z,102125.44
2022-08-27T21:52:56.793Z,102125.44
2022-08-27T21:55:26.990Z,102124.50
2022-08-27T21:57:57.102Z,102129.81
2022-08-27T22:00:46.225Z,102128.88
2022-08-27T22:03:17.590Z,102135.00
2022-08-27T22:05:48.749Z,102132.31
2022-08-27T22:08:21.496Z,102135.78
2022-08-27T22:10:57.999Z,102141.00
2022-08-27T22:13:29.204Z,102137.50
2022-08-27T22:16:02.326Z,102138.31
2022-08-27T22:18:35.957Z,102141.78
2022-08-27T22:21:09.320Z,102141.72
2022-08-27T22:23:39.235Z,102136.38
2022-08-27T22:26:14.938Z,102140.72
2022-08-27T22:28:44.617Z,102144.09
2022-08-27T22:31:17.742Z,102144.03
2022-08-27T22:33:48.923Z,102144.88
2022-08-27T22:36:18.874Z,102147.44
2022-08-27T22:38:53.695Z,102152.66
2022-08-27T22:41:38.102Z,102147.31
2022-08-27T22:44:12.169Z,102149.06
2022-08-27T22:46:44.495Z,102150.75
2022-08-27T22:49:15.407Z,102152.44
2022-08-27T22:51:45.092Z,102157.66
2022-08-27T22:54:14.898Z,102163.75
2022-08-27T22:56:44.710Z,102154.09
2022-08-27T22:59:14.750Z,102157.47
2022-08-27T23:01:48.207Z,102166.22
2022-08-27T23:04:18.663Z,102160.03
2022-08-27T23:06:51.427Z,102163.53
2022-08-27T23:09:22.393Z,102162.59
2022-08-27T23:11:52.925Z,102166.97
2022-08-27T23:14:23.067Z,102163.47
2022-08-27T23:17:06.682Z,102167.81
2022-08-27T23:19:44.045Z,102173.09
2022-08-27T23:22:15.089Z,102177.44
2022-08-27T23:24:57.014Z,102172.16
2022-08-27T23:27:37.990Z,102165.06
2022-08-27T23:30:12.703Z,102171.19
2022-08-27T23:32:48.308Z,102170.28
2022-08-27T23:35:25.438Z,102167.56
2022-08-27T23:37:55.557Z,102174.56
2022-08-27T23:40:27.077Z,102173.66
2022-08-27T23:42:58.190Z,102165.75
2022-08-27T23:45:30.331Z,102164.75
2022-08-27T23:48:05.978Z,102167.41
2022-08-27T23:50:39.128Z,102172.59
2022-08-27T23:53:10.515Z,102164.63
2022-08-27T23:55:41.220Z,102164.63
2022-08-27T23:58:12.122Z,102166.31
